sensor_id;sensor_type;location;lat;lon;timestamp;P1;durP1;ratioP1;P2;durP2;ratioP2
14722;SDS011;7452;55.594;12.986;2023-02-21T00:02:30;24.57;;;5.60;;
14722;SDS011;7452;55.594;12.986;2023-02-21T00:05:15;29.47;;;5.87;;
14722;SDS011;7452;55.594;12.986;2023-02-21T00:08:00;27.43;;;6.53;;
14722;SDS011;7452;55.594;12.986;2023-02-21T00:10:45;30.40;;;6.63;;
14722;SDS011;7452;55.594;12.986;2023-02-21T00:13:29;24.13;;;6.73;;
14722;SDS011;7452;55.594;12.986;2023-02-21T00:16:14;31.17;;;6.33;;
14722;SDS011;7452;55.594;12.986;2023-02-21T00:19:00;30.17;;;6.77;;
14722;SDS011;7452;55.594;12.986;2023-02-21T00:21:46;30.70;;;6.00;;
14722;SDS011;7452;55.594;12.986;2023-02-21T00:24:31;33.17;;;6.17;;
14722;SDS011;7452;55.594;12.986;2023-02-21T00:27:15;22.90;;;5.50;;
14722;SDS011;7452;55.594;12.986;2023-02-21T00:30:00;24.30;;;5.63;;
14722;SDS011;7452;55.594;12.986;2023-02-21T00:32:44;26.73;;;5.73;;
14722;SDS011;7452;55.594;12.986;2023-02-21T00:35:29;24.27;;;5.90;;
14722;SDS011;7452;55.594;12.986;2023-02-21T00:38:14;25.20;;;6.23;;
14722;SDS011;7452;55.594;12.986;2023-02-21T00:40:59;20.97;;;5.30;;
14722;SDS011;7452;55.594;12.986;2023-02-21T00:43:43;28.03;;;6.03;;
14722;SDS011;7452;55.594;12.986;2023-02-21T00:46:27;31.43;;;5.93;;
14722;SDS011;7452;55.594;12.986;2023-02-21T00:49:12;33.43;;;6.20;;
14722;SDS011;7452;55.594;12.986;2023-02-21T00:51:57;29.13;;;5.87;;
14722;SDS011;7452;55.594;12.986;2023-02-21T00:54:42;28.67;;;6.57;;
14722;SDS011;7452;55.594;12.986;2023-02-21T00:57:26;33.53;;;6.23;;
14722;SDS011;7452;55.594;12.986;2023-02-21T01:00:14;29.13;;;6.13;;
14722;SDS011;7452;55.594;12.986;2023-02-21T01:03:01;27.80;;;5.73;;
14722;SDS011;7452;55.594;12.986;2023-02-21T01:05:45;25.00;;;5.87;;
14722;SDS011;7452;55.594;12.986;2023-02-21T01:08:30;27.67;;;5.17;;
14722;SDS011;7452;55.594;12.986;2023-02-21T01:11:16;24.23;;;5.47;;
14722;SDS011;7452;55.594;12.986;2023-02-21T01:14:02;25.70;;;5.83;;
14722;SDS011;7452;55.594;12.986;2023-02-21T01:16:47;22.87;;;5.67;;
14722;SDS011;7452;55.594;12.986;2023-02-21T01:19:31;28.97;;;5.67;;
14722;SDS011;7452;55.594;12.986;2023-02-21T01:22:15;21.67;;;4.90;;
14722;SDS011;7452;55.594;12.986;2023-02-21T01:25:00;33.40;;;6.53;;
14722;SDS011;7452;55.594;12.986;2023-02-21T01:27:46;27.13;;;5.37;;
14722;SDS011;7452;55.594;12.986;2023-02-21T01:30:30;31.97;;;6.63;;
14722;SDS011;7452;55.594;12.986;2023-02-21T01:33:15;24.60;;;5.60;;
14722;SDS011;7452;55.594;12.986;2023-02-21T01:35:59;22.80;;;5.80;;
14722;SDS011;7452;55.594;12.986;2023-02-21T01:38:43;20.87;;;5.80;;
14722;SDS011;7452;55.594;12.986;2023-02-21T01:41:27;28.40;;;5.80;;
14722;SDS011;7452;55.594;12.986;2023-02-21T01:47:14;27.27;;;5.77;;
14722;SDS011;7452;55.594;12.986;2023-02-21T01:49:59;29.43;;;6.53;;
14722;SDS011;7452;55.594;12.986;2023-02-21T01:52:46;26.57;;;6.77;;
14722;SDS011;7452;55.594;12.986;2023-02-21T01:55:32;25.87;;;5.73;;
14722;SDS011;7452;55.594;12.986;2023-02-21T01:58:18;19.73;;;5.40;;
14722;SDS011;7452;55.594;12.986;2023-02-21T02:01:08;28.23;;;6.23;;
14722;SDS011;7452;55.594;12.986;2023-02-21T02:03:58;27.13;;;6.07;;
14722;SDS011;7452;55.594;12.986;2023-02-21T02:06:43;26.47;;;5.77;;
14722;SDS011;7452;55.594;12.986;2023-02-21T02:09:28;25.97;;;5.27;;
14722;SDS011;7452;55.594;12.986;2023-02-21T02:12:26;24.00;;;5.13;;
14722;SDS011;7452;55.594;12.986;2023-02-21T02:15:12;25.10;;;6.07;;
14722;SDS011;7452;55.594;12.986;2023-02-21T02:17:53;27.43;;;6.37;;
14722;SDS011;7452;55.594;12.986;2023-02-21T02:23:43;31.63;;;6.03;;
14722;SDS011;7452;55.594;12.986;2023-02-21T02:26:40;23.83;;;5.70;;
14722;SDS011;7452;55.594;12.986;2023-02-21T02:29:43;28.27;;;5.77;;
14722;SDS011;7452;55.594;12.986;2023-02-21T02:35:19;26.93;;;5.40;;
14722;SDS011;7452;55.594;12.986;2023-02-21T02:37:54;30.43;;;6.47;;
14722;SDS011;7452;55.594;12.986;2023-02-21T02:40:33;24.67;;;6.40;;
14722;SDS011;7452;55.594;12.986;2023-02-21T02:43:07;23.03;;;6.20;;
14722;SDS011;7452;55.594;12.986;2023-02-21T02:45:42;28.73;;;6.57;;
14722;SDS011;7452;55.594;12.986;2023-02-21T02:48:12;27.97;;;6.23;;
14722;SDS011;7452;55.594;12.986;2023-02-21T02:50:47;25.17;;;5.83;;
14722;SDS011;7452;55.594;12.986;2023-02-21T02:53:18;21.63;;;6.13;;
14722;SDS011;7452;55.594;12.986;2023-02-21T02:55:47;22.03;;;5.70;;
14722;SDS011;7452;55.594;12.986;2023-02-21T02:58:17;24.87;;;6.30;;
14722;SDS011;7452;55.594;12.986;2023-02-21T03:00:47;27.27;;;6.13;;
14722;SDS011;7452;55.594;12.986;2023-02-21T03:03:32;23.13;;;5.83;;
14722;SDS011;7452;55.594;12.986;2023-02-21T03:06:18;29.37;;;5.40;;
14722;SDS011;7452;55.594;12.986;2023-02-21T03:08:58;25.93;;;5.27;;
14722;SDS011;7452;55.594;12.986;2023-02-21T03:11:33;26.97;;;5.90;;
14722;SDS011;7452;55.594;12.986;2023-02-21T03:14:04;22.03;;;6.47;;
14722;SDS011;7452;55.594;12.986;2023-02-21T03:16:36;18.63;;;5.57;;
14722;SDS011;7452;55.594;12.986;2023-02-21T03:19:08;26.67;;;5.97;;
14722;SDS011;7452;55.594;12.986;2023-02-21T03:21:40;24.60;;;6.80;;
14722;SDS011;7452;55.594;12.986;2023-02-21T03:24:10;29.57;;;5.73;;
14722;SDS011;7452;55.594;12.986;2023-02-21T03:26:40;26.30;;;5.93;;
14722;SDS011;7452;55.594;12.986;2023-02-21T03:29:09;24.43;;;6.10;;
14722;SDS011;7452;55.594;12.986;2023-02-21T03:31:39;32.10;;;6.57;;
14722;SDS011;7452;55.594;12.986;2023-02-21T03:34:10;23.60;;;6.43;;
14722;SDS011;7452;55.594;12.986;2023-02-21T03:36:38;27.67;;;6.00;;
14722;SDS011;7452;55.594;12.986;2023-02-21T03:39:06;27.70;;;6.07;;
14722;SDS011;7452;55.594;12.986;2023-02-21T03:41:33;25.80;;;6.33;;
14722;SDS011;7452;55.594;12.986;2023-02-21T03:44:03;29.67;;;6.60;;
14722;SDS011;7452;55.594;12.986;2023-02-21T03:46:30;24.47;;;7.57;;
14722;SDS011;7452;55.594;12.986;2023-02-21T03:48:57;30.90;;;6.90;;
14722;SDS011;7452;55.594;12.986;2023-02-21T03:51:25;26.00;;;7.13;;
14722;SDS011;7452;55.594;12.986;2023-02-21T03:53:55;32.50;;;7.17;;
14722;SDS011;7452;55.594;12.986;2023-02-21T03:56:22;27.57;;;6.57;;
14722;SDS011;7452;55.594;12.986;2023-02-21T03:58:50;27.93;;;6.60;;
14722;SDS011;7452;55.594;12.986;2023-02-21T04:01:18;31.07;;;6.83;;
14722;SDS011;7452;55.594;12.986;2023-02-21T04:03:45;30.40;;;7.40;;
14722;SDS011;7452;55.594;12.986;2023-02-21T04:06:12;33.33;;;7.13;;
14722;SDS011;7452;55.594;12.986;2023-02-21T04:08:40;33.83;;;7.47;;
14722;SDS011;7452;55.594;12.986;2023-02-21T04:11:08;25.13;;;6.73;;
14722;SDS011;7452;55.594;12.986;2023-02-21T04:13:35;30.77;;;7.10;;
14722;SDS011;7452;55.594;12.986;2023-02-21T04:16:02;29.63;;;6.90;;
14722;SDS011;7452;55.594;12.986;2023-02-21T04:18:29;30.70;;;7.30;;
14722;SDS011;7452;55.594;12.986;2023-02-21T04:20:56;38.03;;;7.33;;
14722;SDS011;7452;55.594;12.986;2023-02-21T04:23:23;33.83;;;8.40;;
14722;SDS011;7452;55.594;12.986;2023-02-21T04:25:50;35.40;;;8.60;;
14722;SDS011;7452;55.594;12.986;2023-02-21T04:28:19;33.63;;;7.93;;
14722;SDS011;7452;55.594;12.986;2023-02-21T04:30:46;40.60;;;8.00;;
14722;SDS011;7452;55.594;12.986;2023-02-21T04:33:13;36.70;;;8.10;;
14722;SDS011;7452;55.594;12.986;2023-02-21T04:35:41;34.43;;;7.87;;
14722;SDS011;7452;55.594;12.986;2023-02-21T04:38:07;39.10;;;8.97;;
14722;SDS011;7452;55.594;12.986;2023-02-21T04:40:35;29.20;;;7.67;;
14722;SDS011;7452;55.594;12.986;2023-02-21T04:43:02;40.63;;;7.80;;
14722;SDS011;7452;55.594;12.986;2023-02-21T04:45:31;34.93;;;8.50;;
14722;SDS011;7452;55.594;12.986;2023-02-21T04:47:58;39.10;;;8.47;;
14722;SDS011;7452;55.594;12.986;2023-02-21T04:50:24;35.37;;;7.97;;
14722;SDS011;7452;55.594;12.986;2023-02-21T04:52:53;35.40;;;7.87;;
14722;SDS011;7452;55.594;12.986;2023-02-21T04:55:20;41.30;;;9.33;;
14722;SDS011;7452;55.594;12.986;2023-02-21T04:57:47;40.50;;;9.20;;
14722;SDS011;7452;55.594;12.986;2023-02-21T05:00:14;42.03;;;9.57;;
14722;SDS011;7452;55.594;12.986;2023-02-21T05:02:44;39.33;;;8.47;;
14722;SDS011;7452;55.594;12.986;2023-02-21T05:05:12;33.10;;;7.93;;
14722;SDS011;7452;55.594;12.986;2023-02-21T05:07:40;40.63;;;8.20;;
14722;SDS011;7452;55.594;12.986;2023-02-21T05:10:08;31.50;;;8.47;;
14722;SDS011;7452;55.594;12.986;2023-02-21T05:12:35;38.13;;;8.50;;
14722;SDS011;7452;55.594;12.986;2023-02-21T05:15:04;40.87;;;9.20;;
14722;SDS011;7452;55.594;12.986;2023-02-21T05:17:32;41.27;;;9.63;;
14722;SDS011;7452;55.594;12.986;2023-02-21T05:20:01;39.93;;;7.87;;
14722;SDS011;7452;55.594;12.986;2023-02-21T05:22:28;38.97;;;9.07;;
14722;SDS011;7452;55.594;12.986;2023-02-21T05:24:55;36.73;;;8.10;;
14722;SDS011;7452;55.594;12.986;2023-02-21T05:27:22;35.63;;;8.60;;
14722;SDS011;7452;55.594;12.986;2023-02-21T05:29:50;35.37;;;8.43;;
14722;SDS011;7452;55.594;12.986;2023-02-21T05:32:20;40.53;;;8.87;;
14722;SDS011;7452;55.594;12.986;2023-02-21T05:34:47;35.00;;;7.83;;
14722;SDS011;7452;55.594;12.986;2023-02-21T05:37:16;37.57;;;8.00;;
14722;SDS011;7452;55.594;12.986;2023-02-21T05:39:45;35.63;;;8.07;;
14722;SDS011;7452;55.594;12.986;2023-02-21T05:42:12;40.50;;;9.00;;
14722;SDS011;7452;55.594;12.986;2023-02-21T05:44:39;36.23;;;7.70;;
14722;SDS011;7452;55.594;12.986;2023-02-21T05:47:09;39.03;;;8.00;;
14722;SDS011;7452;55.594;12.986;2023-02-21T05:49:37;34.50;;;9.13;;
14722;SDS011;7452;55.594;12.986;2023-02-21T05:52:04;34.53;;;8.30;;
14722;SDS011;7452;55.594;12.986;2023-02-21T05:54:33;27.87;;;7.83;;
14722;SDS011;7452;55.594;12.986;2023-02-21T05:57:00;40.50;;;7.93;;
14722;SDS011;7452;55.594;12.986;2023-02-21T05:59:27;37.80;;;7.90;;
14722;SDS011;7452;55.594;12.986;2023-02-21T06:01:54;36.10;;;7.97;;
14722;SDS011;7452;55.594;12.986;2023-02-21T06:04:21;36.93;;;8.00;;
14722;SDS011;7452;55.594;12.986;2023-02-21T06:06:48;35.77;;;7.73;;
14722;SDS011;7452;55.594;12.986;2023-02-21T06:09:15;41.20;;;8.40;;
14722;SDS011;7452;55.594;12.986;2023-02-21T06:11:44;27.20;;;7.73;;
14722;SDS011;7452;55.594;12.986;2023-02-21T06:14:12;38.33;;;7.83;;
14722;SDS011;7452;55.594;12.986;2023-02-21T06:16:41;37.10;;;7.30;;
14722;SDS011;7452;55.594;12.986;2023-02-21T06:19:08;34.27;;;8.13;;
14722;SDS011;7452;55.594;12.986;2023-02-21T06:21:36;29.73;;;7.07;;
14722;SDS011;7452;55.594;12.986;2023-02-21T06:24:05;36.53;;;8.00;;
14722;SDS011;7452;55.594;12.986;2023-02-21T06:26:32;39.97;;;7.67;;
14722;SDS011;7452;55.594;12.986;2023-02-21T06:29:00;36.90;;;7.63;;
14722;SDS011;7452;55.594;12.986;2023-02-21T06:31:27;32.70;;;7.70;;
14722;SDS011;7452;55.594;12.986;2023-02-21T06:33:54;31.87;;;7.70;;
14722;SDS011;7452;55.594;12.986;2023-02-21T06:36:21;29.63;;;6.33;;
14722;SDS011;7452;55.594;12.986;2023-02-21T06:38:51;25.53;;;7.23;;
14722;SDS011;7452;55.594;12.986;2023-02-21T06:41:20;39.00;;;8.47;;
14722;SDS011;7452;55.594;12.986;2023-02-21T06:43:49;34.50;;;7.50;;
14722;SDS011;7452;55.594;12.986;2023-02-21T06:46:19;30.30;;;7.70;;
14722;SDS011;7452;55.594;12.986;2023-02-21T06:48:47;35.13;;;7.53;;
14722;SDS011;7452;55.594;12.986;2023-02-21T06:51:14;33.23;;;8.23;;
14722;SDS011;7452;55.594;12.986;2023-02-21T06:53:41;34.43;;;8.47;;
14722;SDS011;7452;55.594;12.986;2023-02-21T06:56:08;33.20;;;8.03;;
14722;SDS011;7452;55.594;12.986;2023-02-21T06:58:36;42.27;;;9.10;;
14722;SDS011;7452;55.594;12.986;2023-02-21T07:01:03;37.70;;;7.53;;
14722;SDS011;7452;55.594;12.986;2023-02-21T07:03:31;44.73;;;8.13;;
14722;SDS011;7452;55.594;12.986;2023-02-21T07:05:58;38.53;;;7.37;;
14722;SDS011;7452;55.594;12.986;2023-02-21T07:08:25;43.97;;;7.53;;
14722;SDS011;7452;55.594;12.986;2023-02-21T07:10:53;43.40;;;8.57;;
14722;SDS011;7452;55.594;12.986;2023-02-21T07:13:20;31.97;;;6.83;;
14722;SDS011;7452;55.594;12.986;2023-02-21T07:15:46;39.70;;;7.87;;
14722;SDS011;7452;55.594;12.986;2023-02-21T07:18:13;42.93;;;7.63;;
14722;SDS011;7452;55.594;12.986;2023-02-21T07:20:42;34.67;;;7.50;;
14722;SDS011;7452;55.594;12.986;2023-02-21T07:23:09;36.47;;;7.77;;
14722;SDS011;7452;55.594;12.986;2023-02-21T07:25:36;33.63;;;7.23;;
14722;SDS011;7452;55.594;12.986;2023-02-21T07:28:03;32.47;;;6.70;;
14722;SDS011;7452;55.594;12.986;2023-02-21T07:30:30;33.97;;;7.77;;
14722;SDS011;7452;55.594;12.986;2023-02-21T07:32:57;38.43;;;7.77;;
14722;SDS011;7452;55.594;12.986;2023-02-21T07:35:24;31.63;;;6.90;;
14722;SDS011;7452;55.594;12.986;2023-02-21T07:37:53;37.30;;;7.23;;
14722;SDS011;7452;55.594;12.986;2023-02-21T07:40:20;37.60;;;7.83;;
14722;SDS011;7452;55.594;12.986;2023-02-21T07:42:46;43.13;;;8.13;;
14722;SDS011;7452;55.594;12.986;2023-02-21T07:45:14;31.73;;;7.27;;
14722;SDS011;7452;55.594;12.986;2023-02-21T07:47:41;31.17;;;6.57;;
14722;SDS011;7452;55.594;12.986;2023-02-21T07:50:14;27.67;;;7.00;;
14722;SDS011;7452;55.594;12.986;2023-02-21T07:52:41;25.87;;;7.20;;
14722;SDS011;7452;55.594;12.986;2023-02-21T07:55:09;35.50;;;7.37;;
14722;SDS011;7452;55.594;12.986;2023-02-21T07:57:37;33.27;;;6.73;;
14722;SDS011;7452;55.594;12.986;2023-02-21T08:00:04;28.17;;;7.10;;
14722;SDS011;7452;55.594;12.986;2023-02-21T08:02:32;29.97;;;7.03;;
14722;SDS011;7452;55.594;12.986;2023-02-21T08:04:59;27.67;;;6.73;;
14722;SDS011;7452;55.594;12.986;2023-02-21T08:07:26;34.13;;;6.53;;
14722;SDS011;7452;55.594;12.986;2023-02-21T08:09:54;33.53;;;7.03;;
14722;SDS011;7452;55.594;12.986;2023-02-21T08:12:22;31.60;;;6.43;;
14722;SDS011;7452;55.594;12.986;2023-02-21T08:14:49;28.37;;;6.90;;
14722;SDS011;7452;55.594;12.986;2023-02-21T08:17:16;31.53;;;7.53;;
14722;SDS011;7452;55.594;12.986;2023-02-21T08:19:43;26.67;;;6.53;;
14722;SDS011;7452;55.594;12.986;2023-02-21T08:22:10;28.73;;;6.13;;
14722;SDS011;7452;55.594;12.986;2023-02-21T08:24:37;30.73;;;7.03;;
14722;SDS011;7452;55.594;12.986;2023-02-21T08:27:04;25.57;;;6.40;;
14722;SDS011;7452;55.594;12.986;2023-02-21T08:29:33;29.07;;;6.43;;
14722;SDS011;7452;55.594;12.986;2023-02-21T08:31:59;29.00;;;7.33;;
14722;SDS011;7452;55.594;12.986;2023-02-21T08:34:26;30.97;;;6.87;;
14722;SDS011;7452;55.594;12.986;2023-02-21T08:36:59;31.07;;;6.93;;
14722;SDS011;7452;55.594;12.986;2023-02-21T08:39:38;27.70;;;6.20;;
14722;SDS011;7452;55.594;12.986;2023-02-21T08:42:12;26.17;;;7.57;;
14722;SDS011;7452;55.594;12.986;2023-02-21T08:44:49;28.33;;;7.13;;
14722;SDS011;7452;55.594;12.986;2023-02-21T08:47:16;23.70;;;6.37;;
14722;SDS011;7452;55.594;12.986;2023-02-21T08:49:44;23.87;;;5.77;;
14722;SDS011;7452;55.594;12.986;2023-02-21T08:52:26;32.13;;;7.33;;
14722;SDS011;7452;55.594;12.986;2023-02-21T08:54:53;22.10;;;6.47;;
14722;SDS011;7452;55.594;12.986;2023-02-21T08:57:20;27.50;;;6.33;;
14722;SDS011;7452;55.594;12.986;2023-02-21T08:59:50;32.50;;;6.90;;
14722;SDS011;7452;55.594;12.986;2023-02-21T09:02:23;25.83;;;5.57;;
14722;SDS011;7452;55.594;12.986;2023-02-21T09:04:50;27.10;;;6.43;;
14722;SDS011;7452;55.594;12.986;2023-02-21T09:07:18;29.03;;;6.57;;
14722;SDS011;7452;55.594;12.986;2023-02-21T09:09:47;23.43;;;6.03;;
14722;SDS011;7452;55.594;12.986;2023-02-21T09:12:14;23.17;;;5.80;;
14722;SDS011;7452;55.594;12.986;2023-02-21T09:14:42;35.30;;;7.10;;
14722;SDS011;7452;55.594;12.986;2023-02-21T09:17:12;29.37;;;6.27;;
14722;SDS011;7452;55.594;12.986;2023-02-21T09:19:39;28.27;;;6.23;;
14722;SDS011;7452;55.594;12.986;2023-02-21T09:22:06;25.27;;;6.17;;
14722;SDS011;7452;55.594;12.986;2023-02-21T09:24:33;29.40;;;6.63;;
14722;SDS011;7452;55.594;12.986;2023-02-21T09:27:00;23.53;;;6.33;;
14722;SDS011;7452;55.594;12.986;2023-02-21T09:29:28;26.97;;;6.10;;
14722;SDS011;7452;55.594;12.986;2023-02-21T09:31:56;27.80;;;5.50;;
14722;SDS011;7452;55.594;12.986;2023-02-21T09:34:25;25.47;;;5.57;;
14722;SDS011;7452;55.594;12.986;2023-02-21T09:36:52;22.10;;;5.90;;
14722;SDS011;7452;55.594;12.986;2023-02-21T09:39:20;23.60;;;5.43;;
14722;SDS011;7452;55.594;12.986;2023-02-21T09:41:47;25.87;;;6.03;;
14722;SDS011;7452;55.594;12.986;2023-02-21T09:44:18;20.67;;;4.93;;
14722;SDS011;7452;55.594;12.986;2023-02-21T09:46:47;22.57;;;5.60;;
14722;SDS011;7452;55.594;12.986;2023-02-21T09:49:19;20.10;;;5.03;;
14722;SDS011;7452;55.594;12.986;2023-02-21T09:51:50;18.47;;;4.90;;
14722;SDS011;7452;55.594;12.986;2023-02-21T09:54:29;21.60;;;5.20;;
14722;SDS011;7452;55.594;12.986;2023-02-21T09:57:00;18.97;;;5.13;;
14722;SDS011;7452;55.594;12.986;2023-02-21T09:59:29;18.80;;;4.73;;
14722;SDS011;7452;55.594;12.986;2023-02-21T10:01:59;22.17;;;5.93;;
14722;SDS011;7452;55.594;12.986;2023-02-21T10:04:39;24.97;;;5.90;;
14722;SDS011;7452;55.594;12.986;2023-02-21T10:07:24;25.73;;;5.03;;
14722;SDS011;7452;55.594;12.986;2023-02-21T10:09:58;23.80;;;5.10;;
14722;SDS011;7452;55.594;12.986;2023-02-21T10:12:33;17.90;;;5.10;;
14722;SDS011;7452;55.594;12.986;2023-02-21T10:15:18;19.20;;;5.27;;
14722;SDS011;7452;55.594;12.986;2023-02-21T10:18:04;16.47;;;4.87;;
14722;SDS011;7452;55.594;12.986;2023-02-21T10:20:38;13.93;;;4.93;;
14722;SDS011;7452;55.594;12.986;2023-02-21T10:23:13;20.27;;;4.97;;
14722;SDS011;7452;55.594;12.986;2023-02-21T10:25:43;18.43;;;4.93;;
14722;SDS011;7452;55.594;12.986;2023-02-21T10:28:13;17.57;;;4.70;;
14722;SDS011;7452;55.594;12.986;2023-02-21T10:30:43;24.07;;;5.20;;
14722;SDS011;7452;55.594;12.986;2023-02-21T10:33:12;29.63;;;5.87;;
14722;SDS011;7452;55.594;12.986;2023-02-21T10:35:38;23.10;;;5.33;;
14722;SDS011;7452;55.594;12.986;2023-02-21T10:38:06;22.03;;;5.10;;
14722;SDS011;7452;55.594;12.986;2023-02-21T10:40:37;15.17;;;4.20;;
14722;SDS011;7452;55.594;12.986;2023-02-21T10:43:08;16.27;;;5.37;;
14722;SDS011;7452;55.594;12.986;2023-02-21T10:45:39;17.23;;;5.00;;
14722;SDS011;7452;55.594;12.986;2023-02-21T10:48:11;18.30;;;4.90;;
14722;SDS011;7452;55.594;12.986;2023-02-21T10:50:43;15.97;;;4.63;;
14722;SDS011;7452;55.594;12.986;2023-02-21T10:53:22;13.67;;;4.13;;
14722;SDS011;7452;55.594;12.986;2023-02-21T10:56:18;14.80;;;4.60;;
14722;SDS011;7452;55.594;12.986;2023-02-21T10:58:48;13.23;;;3.97;;
14722;SDS011;7452;55.594;12.986;2023-02-21T11:01:17;14.87;;;4.33;;
14722;SDS011;7452;55.594;12.986;2023-02-21T11:03:47;15.07;;;4.20;;
14722;SDS011;7452;55.594;12.986;2023-02-21T11:06:26;17.20;;;5.20;;
14722;SDS011;7452;55.594;12.986;2023-02-21T11:08:59;13.67;;;4.17;;
14722;SDS011;7452;55.594;12.986;2023-02-21T11:11:35;14.50;;;4.43;;
14722;SDS011;7452;55.594;12.986;2023-02-21T11:17:03;14.57;;;4.37;;
14722;SDS011;7452;55.594;12.986;2023-02-21T11:19:48;15.17;;;4.07;;
14722;SDS011;7452;55.594;12.986;2023-02-21T11:22:19;13.57;;;4.40;;
14722;SDS011;7452;55.594;12.986;2023-02-21T11:24:52;12.80;;;4.10;;
14722;SDS011;7452;55.594;12.986;2023-02-21T11:27:26;12.13;;;3.77;;
14722;SDS011;7452;55.594;12.986;2023-02-21T11:29:57;13.50;;;3.77;;
14722;SDS011;7452;55.594;12.986;2023-02-21T11:32:26;12.20;;;3.57;;
14722;SDS011;7452;55.594;12.986;2023-02-21T11:35:03;9.90;;;3.40;;
14722;SDS011;7452;55.594;12.986;2023-02-21T11:37:33;11.87;;;4.00;;
14722;SDS011;7452;55.594;12.986;2023-02-21T11:40:22;13.13;;;4.03;;
14722;SDS011;7452;55.594;12.986;2023-02-21T11:45:37;9.43;;;3.57;;
14722;SDS011;7452;55.594;12.986;2023-02-21T11:48:10;13.03;;;4.30;;
14722;SDS011;7452;55.594;12.986;2023-02-21T11:50:43;14.17;;;4.43;;
14722;SDS011;7452;55.594;12.986;2023-02-21T11:53:16;12.80;;;3.90;;
14722;SDS011;7452;55.594;12.986;2023-02-21T11:55:50;12.47;;;4.03;;
14722;SDS011;7452;55.594;12.986;2023-02-21T11:58:26;11.33;;;3.40;;
14722;SDS011;7452;55.594;12.986;2023-02-21T12:00:59;12.47;;;4.03;;
14722;SDS011;7452;55.594;12.986;2023-02-21T12:06:31;11.57;;;3.60;;
14722;SDS011;7452;55.594;12.986;2023-02-21T12:09:06;14.13;;;3.97;;
14722;SDS011;7452;55.594;12.986;2023-02-21T12:11:41;9.37;;;3.27;;
14722;SDS011;7452;55.594;12.986;2023-02-21T12:14:18;16.37;;;3.90;;
14722;SDS011;7452;55.594;12.986;2023-02-21T12:16:58;9.40;;;3.43;;
14722;SDS011;7452;55.594;12.986;2023-02-21T12:19:47;11.67;;;3.40;;
14722;SDS011;7452;55.594;12.986;2023-02-21T12:22:27;11.27;;;3.70;;
14722;SDS011;7452;55.594;12.986;2023-02-21T12:25:09;12.53;;;3.70;;
14722;SDS011;7452;55.594;12.986;2023-02-21T12:27:44;11.40;;;3.90;;
14722;SDS011;7452;55.594;12.986;2023-02-21T12:33:18;8.10;;;3.20;;
14722;SDS011;7452;55.594;12.986;2023-02-21T12:36:01;11.43;;;3.43;;
14722;SDS011;7452;55.594;12.986;2023-02-21T12:38:56;8.67;;;3.07;;
14722;SDS011;7452;55.594;12.986;2023-02-21T12:41:42;10.77;;;3.47;;
14722;SDS011;7452;55.594;12.986;2023-02-21T12:44:23;13.30;;;4.40;;
14722;SDS011;7452;55.594;12.986;2023-02-21T12:46:59;12.23;;;3.70;;
14722;SDS011;7452;55.594;12.986;2023-02-21T12:49:31;9.40;;;3.27;;
14722;SDS011;7452;55.594;12.986;2023-02-21T12:52:12;10.00;;;3.50;;
14722;SDS011;7452;55.594;12.986;2023-02-21T12:54:42;10.40;;;3.57;;
14722;SDS011;7452;55.594;12.986;2023-02-21T12:57:13;12.77;;;3.70;;
14722;SDS011;7452;55.594;12.986;2023-02-21T12:59:49;10.43;;;3.50;;
14722;SDS011;7452;55.594;12.986;2023-02-21T13:02:26;10.30;;;3.60;;
14722;SDS011;7452;55.594;12.986;2023-02-21T13:05:02;9.80;;;3.27;;
14722;SDS011;7452;55.594;12.986;2023-02-21T13:07:38;10.50;;;3.70;;
14722;SDS011;7452;55.594;12.986;2023-02-21T13:10:12;11.80;;;4.07;;
14722;SDS011;7452;55.594;12.986;2023-02-21T13:12:44;13.37;;;3.50;;
14722;SDS011;7452;55.594;12.986;2023-02-21T13:15:17;10.53;;;3.73;;
14722;SDS011;7452;55.594;12.986;2023-02-21T13:17:51;13.53;;;3.97;;
14722;SDS011;7452;55.594;12.986;2023-02-21T13:20:22;11.37;;;3.63;;
14722;SDS011;7452;55.594;12.986;2023-02-21T13:22:52;7.97;;;3.27;;
14722;SDS011;7452;55.594;12.986;2023-02-21T13:26:01;11.90;;;3.10;;
14722;SDS011;7452;55.594;12.986;2023-02-21T13:28:39;8.87;;;3.47;;
14722;SDS011;7452;55.594;12.986;2023-02-21T13:31:19;8.57;;;3.30;;
14722;SDS011;7452;55.594;12.986;2023-02-21T13:33:50;12.30;;;3.37;;
14722;SDS011;7452;55.594;12.986;2023-02-21T13:36:22;9.17;;;3.37;;
14722;SDS011;7452;55.594;12.986;2023-02-21T13:38:55;8.63;;;3.20;;
14722;SDS011;7452;55.594;12.986;2023-02-21T13:41:25;7.68;;;2.75;;
14722;SDS011;7452;55.594;12.986;2023-02-21T13:43:54;9.60;;;3.60;;
14722;SDS011;7452;55.594;12.986;2023-02-21T13:46:23;7.10;;;2.83;;
14722;SDS011;7452;55.594;12.986;2023-02-21T13:52:14;8.60;;;2.97;;
14722;SDS011;7452;55.594;12.986;2023-02-21T13:57:51;6.97;;;2.70;;
14722;SDS011;7452;55.594;12.986;2023-02-21T14:07:40;9.87;;;3.00;;
14722;SDS011;7452;55.594;12.986;2023-02-21T14:10:18;9.00;;;3.30;;
14722;SDS011;7452;55.594;12.986;2023-02-21T14:12:50;8.63;;;2.90;;
14722;SDS011;7452;55.594;12.986;2023-02-21T14:15:21;10.83;;;3.23;;
14722;SDS011;7452;55.594;12.986;2023-02-21T14:17:50;8.90;;;3.13;;
14722;SDS011;7452;55.594;12.986;2023-02-21T14:20:18;9.37;;;3.03;;
14722;SDS011;7452;55.594;12.986;2023-02-21T14:22:48;9.93;;;3.37;;
14722;SDS011;7452;55.594;12.986;2023-02-21T14:25:18;7.87;;;2.70;;
14722;SDS011;7452;55.594;12.986;2023-02-21T14:27:47;8.90;;;2.57;;
14722;SDS011;7452;55.594;12.986;2023-02-21T14:30:22;7.33;;;3.10;;
14722;SDS011;7452;55.594;12.986;2023-02-21T14:32:58;11.83;;;3.13;;
14722;SDS011;7452;55.594;12.986;2023-02-21T14:35:34;8.30;;;2.83;;
14722;SDS011;7452;55.594;12.986;2023-02-21T14:38:03;9.43;;;2.93;;
14722;SDS011;7452;55.594;12.986;2023-02-21T14:40:35;9.70;;;2.87;;
14722;SDS011;7452;55.594;12.986;2023-02-21T14:43:14;8.43;;;3.30;;
14722;SDS011;7452;55.594;12.986;2023-02-21T14:45:54;7.37;;;2.67;;
14722;SDS011;7452;55.594;12.986;2023-02-21T15:00:24;10.63;;;3.00;;
14722;SDS011;7452;55.594;12.986;2023-02-21T15:03:00;11.73;;;3.27;;
14722;SDS011;7452;55.594;12.986;2023-02-21T15:05:36;9.83;;;2.87;;
14722;SDS011;7452;55.594;12.986;2023-02-21T15:08:11;7.97;;;2.60;;
14722;SDS011;7452;55.594;12.986;2023-02-21T15:10:42;7.60;;;3.00;;
14722;SDS011;7452;55.594;12.986;2023-02-21T15:13:20;9.77;;;2.80;;
14722;SDS011;7452;55.594;12.986;2023-02-21T15:15:53;11.50;;;2.70;;
14722;SDS011;7452;55.594;12.986;2023-02-21T15:18:23;8.97;;;2.77;;
14722;SDS011;7452;55.594;12.986;2023-02-21T15:21:03;9.47;;;3.03;;
14722;SDS011;7452;55.594;12.986;2023-02-21T15:23:32;11.17;;;3.23;;
14722;SDS011;7452;55.594;12.986;2023-02-21T15:26:00;11.83;;;3.07;;
14722;SDS011;7452;55.594;12.986;2023-02-21T15:28:41;15.23;;;2.90;;
14722;SDS011;7452;55.594;12.986;2023-02-21T15:31:08;12.70;;;3.37;;
14722;SDS011;7452;55.594;12.986;2023-02-21T15:33:37;12.33;;;3.37;;
14722;SDS011;7452;55.594;12.986;2023-02-21T15:36:12;10.70;;;2.77;;
14722;SDS011;7452;55.594;12.986;2023-02-21T15:38:42;15.40;;;3.57;;
14722;SDS011;7452;55.594;12.986;2023-02-21T15:41:13;12.47;;;3.70;;
14722;SDS011;7452;55.594;12.986;2023-02-21T15:43:45;12.40;;;4.10;;
14722;SDS011;7452;55.594;12.986;2023-02-21T15:46:17;9.70;;;3.20;;
14722;SDS011;7452;55.594;12.986;2023-02-21T15:48:47;9.13;;;2.87;;
14722;SDS011;7452;55.594;12.986;2023-02-21T15:51:16;11.13;;;2.90;;
14722;SDS011;7452;55.594;12.986;2023-02-21T15:56:36;10.57;;;3.27;;
14722;SDS011;7452;55.594;12.986;2023-02-21T15:59:15;12.00;;;2.63;;
14722;SDS011;7452;55.594;12.986;2023-02-21T16:01:44;12.50;;;2.90;;